createdAt,value
2023-05-06T00:01:46.624Z,88.50
2023-05-06T00:04:15.410Z,88.50
2023-05-06T00:06:43.925Z,88.60
2023-05-06T00:09:11.622Z,88.70
2023-05-06T00:11:39.144Z,88.90
2023-05-06T00:14:06.809Z,89.00
2023-05-06T00:16:34.494Z,89.00
2023-05-06T00:19:02.054Z,89.00
2023-05-06T00:21:29.658Z,89.10
2023-05-06T00:23:57.361Z,89.20
2023-05-06T00:26:24.916Z,89.20
2023-05-06T00:28:52.595Z,89.40
2023-05-06T00:31:20.146Z,89.40
2023-05-06T00:33:47.893Z,89.40
2023-05-06T00:36:15.441Z,89.50
2023-05-06T00:38:43.129Z,89.60
2023-05-06T00:41:10.721Z,89.60
2023-05-06T00:43:38.475Z,89.60
2023-05-06T00:46:07.761Z,89.60
2023-05-06T00:48:36.243Z,89.60
2023-05-06T00:51:04.647Z,89.60
2023-05-06T00:53:33.022Z,89.60
2023-05-06T00:56:00.703Z,89.60
2023-05-06T00:58:28.257Z,89.70
2023-05-06T01:00:56.911Z,89.70
2023-05-06T01:03:24.618Z,89.70
2023-05-06T01:06:19.461Z,89.80
2023-05-06T01:08:59.168Z,89.80
2023-05-06T01:11:44.776Z,89.90
2023-05-06T01:14:23.705Z,89.90
2023-05-06T01:16:56.062Z,90.00
2023-05-06T01:19:53.539Z,90.00
2023-05-06T01:22:23.343Z,90.00
2023-05-06T01:24:50.954Z,90.00
2023-05-06T01:27:18.773Z,90.00
2023-05-06T01:29:47.667Z,90.00
2023-05-06T01:32:49.636Z,90.00
2023-05-06T01:35:21.103Z,90.00
2023-05-06T01:38:05.261Z,90.00
2023-05-06T01:40:35.737Z,90.00
2023-05-06T01:43:06.136Z,90.10
2023-05-06T01:45:36.739Z,90.30
2023-05-06T01:48:05.663Z,90.30
2023-05-06T01:50:33.871Z,90.40
2023-05-06T01:53:03.425Z,90.50
2023-05-06T01:55:32.252Z,90.50
2023-05-06T01:57:59.870Z,90.40
2023-05-06T02:00:27.523Z,90.50
2023-05-06T02:02:55.249Z,90.50
2023-05-06T02:05:23.636Z,90.50
2023-05-06T02:07:55.539Z,90.60
2023-05-06T02:10:23.369Z,90.60
2023-05-06T02:12:57.988Z,90.60
2023-05-06T02:15:26.153Z,90.50
2023-05-06T02:17:54.060Z,90.40
2023-05-06T02:20:21.736Z,90.40
2023-05-06T02:22:49.295Z,90.40
2023-05-06T02:25:16.942Z,90.40
2023-05-06T02:27:46.242Z,90.30
2023-05-06T02:30:14.684Z,90.40
2023-05-06T02:32:42.322Z,90.30
2023-05-06T02:35:10.862Z,90.40
2023-05-06T02:37:38.644Z,90.40
2023-05-06T02:40:06.885Z,90.40
2023-05-06T02:42:35.542Z,90.50
2023-05-06T02:45:03.277Z,90.50
2023-05-06T02:47:33.370Z,90.60
2023-05-06T02:50:01.104Z,90.60
2023-05-06T02:52:28.760Z,90.70
2023-05-06T02:54:56.298Z,90.70
2023-05-06T02:57:23.890Z,90.70
2023-05-06T02:59:51.503Z,90.80
2023-05-06T03:02:19.055Z,90.80
2023-05-06T03:04:46.628Z,90.90
2023-05-06T03:07:14.164Z,90.90
2023-05-06T03:09:41.764Z,90.90
2023-05-06T03:12:11.911Z,91.00
2023-05-06T03:14:40.092Z,91.00
2023-05-06T03:17:07.873Z,91.00
2023-05-06T03:19:37.352Z,91.10
2023-05-06T03:22:06.937Z,91.10
2023-05-06T03:24:37.434Z,91.10
2023-05-06T03:27:07.590Z,91.10
2023-05-06T03:29:35.328Z,91.10
2023-05-06T03:32:04.892Z,91.10
2023-05-06T03:34:38.597Z,91.10
2023-05-06T03:37:07.166Z,91.10
2023-05-06T03:39:35.485Z,91.10
2023-05-06T03:42:03.569Z,91.10
2023-05-06T03:44:31.262Z,91.10
2023-05-06T03:46:59.945Z,91.20
2023-05-06T03:49:28.822Z,91.20
2023-05-06T03:51:56.466Z,91.20
2023-05-06T03:54:26.141Z,91.10
2023-05-06T03:56:54.372Z,91.10
2023-05-06T03:59:22.184Z,91.10
2023-05-06T04:01:51.166Z,91.20
2023-05-06T04:04:18.845Z,91.20
2023-05-06T04:06:46.705Z,91.20
2023-05-06T04:09:14.247Z,91.20
2023-05-06T04:11:42.402Z,91.30
2023-05-06T04:14:13.304Z,91.30
2023-05-06T04:16:40.989Z,91.40
2023-05-06T04:19:09.072Z,91.50
2023-05-06T04:21:37.045Z,91.60
2023-05-06T04:24:09.306Z,91.60
2023-05-06T04:26:39.814Z,91.60
2023-05-06T04:29:08.415Z,91.60
2023-05-06T04:31:42.532Z,91.60
2023-05-06T04:34:12.822Z,91.50
2023-05-06T04:36:41.037Z,91.50
2023-05-06T04:39:25.606Z,91.50
2023-05-06T04:41:53.311Z,91.50
2023-05-06T04:44:29.653Z,91.40
2023-05-06T04:46:58.006Z,91.40
2023-05-06T04:49:26.229Z,91.40
2023-05-06T04:51:54.522Z,91.40
2023-05-06T04:54:22.169Z,91.50
2023-05-06T04:56:49.801Z,91.40
2023-05-06T04:59:19.256Z,91.40
2023-05-06T05:01:47.014Z,91.50
2023-05-06T05:04:14.850Z,91.50
2023-05-06T05:06:42.628Z,91.50
2023-05-06T05:09:10.742Z,91.50
2023-05-06T05:11:41.106Z,91.50
2023-05-06T05:14:09.114Z,91.60
2023-05-06T05:16:36.821Z,91.60
2023-05-06T05:19:08.300Z,91.60
2023-05-06T05:21:37.076Z,91.60
2023-05-06T05:24:05.933Z,91.60
2023-05-06T05:26:34.070Z,91.60
2023-05-06T05:29:01.740Z,91.50
2023-05-06T05:31:31.498Z,91.50
2023-05-06T05:34:00.224Z,91.40
2023-05-06T05:36:28.557Z,91.40
2023-05-06T05:38:58.838Z,91.40
2023-05-06T05:41:28.736Z,91.40
2023-05-06T05:43:56.582Z,91.40
2023-05-06T05:46:24.898Z,91.40
2023-05-06T05:48:53.171Z,91.40
2023-05-06T05:51:22.877Z,91.40
2023-05-06T05:53:52.189Z,91.40
2023-05-06T05:56:21.761Z,91.30
2023-05-06T05:58:50.097Z,91.30
2023-05-06T06:01:17.938Z,91.30
2023-05-06T06:03:47.608Z,91.20
2023-05-06T06:06:15.540Z,91.20
2023-05-06T06:08:43.799Z,91.10
2023-05-06T06:11:12.769Z,91.10
2023-05-06T06:13:42.495Z,91.10
2023-05-06T06:16:10.912Z,91.00
2023-05-06T06:18:38.575Z,90.90
2023-05-06T06:21:06.306Z,90.90
2023-05-06T06:23:34.183Z,90.80
2023-05-06T06:26:03.535Z,90.60
2023-05-06T06:28:33.586Z,90.50
2023-05-06T06:31:02.095Z,90.40
2023-05-06T06:33:29.731Z,90.30
2023-05-06T06:35:58.349Z,90.30
2023-05-06T06:38:26.094Z,90.20
2023-05-06T06:40:54.138Z,90.10
2023-05-06T06:43:21.963Z,90.00
2023-05-06T06:45:59.501Z,90.00
2023-05-06T06:48:27.214Z,89.90
2023-05-06T06:50:54.783Z,89.70
2023-05-06T06:53:22.365Z,89.60
2023-05-06T06:55:49.924Z,89.60
2023-05-06T06:58:17.654Z,89.40
2023-05-06T07:00:45.484Z,89.10
2023-05-06T07:03:15.857Z,88.80
2023-05-06T07:05:44.109Z,88.40
2023-05-06T07:08:11.795Z,88.20
2023-05-06T07:10:40.412Z,87.80
2023-05-06T07:13:08.051Z,87.30
2023-05-06T07:15:35.947Z,87.00
2023-05-06T07:18:03.699Z,86.50
2023-05-06T07:20:31.315Z,85.80
2023-05-06T07:22:58.890Z,85.20
2023-05-06T07:25:27.500Z,84.70
2023-05-06T07:27:55.161Z,84.30
2023-05-06T07:30:23.393Z,83.80
2023-05-06T07:32:51.311Z,83.50
2023-05-06T07:35:18.966Z,83.10
2023-05-06T07:37:46.942Z,82.50
2023-05-06T07:40:14.527Z,81.80
2023-05-06T07:42:43.258Z,81.20
2023-05-06T07:45:11.462Z,81.20
2023-05-06T07:47:39.400Z,81.20
2023-05-06T07:50:08.467Z,81.00
2023-05-06T07:52:36.120Z,81.00
2023-05-06T07:55:04.989Z,80.90
2023-05-06T07:57:32.423Z,80.40
2023-05-06T08:00:00.090Z,79.50
2023-05-06T08:02:28.107Z,79.30
2023-05-06T08:04:55.931Z,79.30
2023-05-06T08:07:23.577Z,79.20
2023-05-06T08:09:51.201Z,79.30
2023-05-06T08:12:18.769Z,79.00
2023-05-06T08:14:46.713Z,78.80
2023-05-06T08:17:14.343Z,78.70
2023-05-06T08:19:41.944Z,79.00
2023-05-06T08:22:09.466Z,79.20
2023-05-06T08:24:37.176Z,78.80
2023-05-06T08:27:04.790Z,78.40
2023-05-06T08:29:32.375Z,78.30
2023-05-06T08:31:59.979Z,77.90
2023-05-06T08:34:27.606Z,77.90
2023-05-06T08:36:56.047Z,77.90
2023-05-06T08:39:23.858Z,77.90
2023-05-06T08:41:54.029Z,77.60
2023-05-06T08:44:23.989Z,77.40
2023-05-06T08:46:51.681Z,76.80
2023-05-06T08:49:19.399Z,76.80
2023-05-06T08:51:51.547Z,76.70
2023-05-06T08:54:19.467Z,76.00
2023-05-06T08:56:56.349Z,76.30
2023-05-06T08:59:31.010Z,75.90
2023-05-06T09:02:01.983Z,76.10
2023-05-06T09:04:30.185Z,76.10
2023-05-06T09:06:59.076Z,75.90
2023-05-06T09:09:26.899Z,75.20
2023-05-06T09:11:57.266Z,74.60
2023-05-06T09:14:25.047Z,74.50
2023-05-06T09:16:53.281Z,75.00
2023-05-06T09:19:22.443Z,74.70
2023-05-06T09:21:51.605Z,75.00
2023-05-06T09:24:19.692Z,75.10
2023-05-06T09:26:47.603Z,75.00
2023-05-06T09:29:15.725Z,75.00
2023-05-06T09:31:45.120Z,74.60
2023-05-06T09:34:13.281Z,74.50
2023-05-06T09:36:41.357Z,74.60
2023-05-06T09:39:10.309Z,74.60
2023-05-06T09:41:38.104Z,74.80
2023-05-06T09:44:06.261Z,74.90
2023-05-06T09:46:34.557Z,75.20
2023-05-06T09:49:02.582Z,75.50
2023-05-06T09:51:31.230Z,75.60
2023-05-06T09:53:59.402Z,75.70
2023-05-06T09:56:28.153Z,75.70
2023-05-06T09:58:55.841Z,75.90
2023-05-06T10:01:35.076Z,76.10
2023-05-06T10:04:10.948Z,76.30
2023-05-06T10:06:41.957Z,76.10
2023-05-06T10:09:10.408Z,76.10
2023-05-06T10:11:38.757Z,76.00
2023-05-06T10:14:07.563Z,76.00
2023-05-06T10:16:36.390Z,76.20
2023-05-06T10:19:06.627Z,76.50
2023-05-06T10:21:39.498Z,76.80
2023-05-06T10:24:11.444Z,77.00
2023-05-06T10:26:40.964Z,77.20
2023-05-06T10:29:11.638Z,77.50
2023-05-06T10:31:46.324Z,77.80
2023-05-06T10:34:16.547Z,78.10
2023-05-06T10:36:45.744Z,78.20
2023-05-06T10:39:14.330Z,78.20
2023-05-06T10:41:43.308Z,78.10
2023-05-06T10:44:10.968Z,78.30
2023-05-06T10:47:02.706Z,78.50
2023-05-06T10:49:30.387Z,78.70
2023-05-06T10:52:13.389Z,78.80
2023-05-06T10:54:51.651Z,79.00
2023-05-06T10:57:22.665Z,79.20
2023-05-06T10:59:50.413Z,79.30
2023-05-06T11:02:20.269Z,79.40
2023-05-06T11:04:53.119Z,79.80
2023-05-06T11:07:24.718Z,79.80
2023-05-06T11:10:00.524Z,79.80
2023-05-06T11:12:55.818Z,80.00
2023-05-06T11:15:38.261Z,79.90
2023-05-06T11:18:24.816Z,79.60
2023-05-06T11:21:02.863Z,79.60
2023-05-06T11:23:52.365Z,79.80
2023-05-06T11:26:20.197Z,79.60
2023-05-06T11:28:51.316Z,79.50
2023-05-06T11:31:21.369Z,79.20
2023-05-06T11:33:52.747Z,79.00
2023-05-06T11:36:21.902Z,78.60
2023-05-06T11:38:51.488Z,78.70
2023-05-06T11:41:19.518Z,78.80
2023-05-06T11:43:49.961Z,78.70
2023-05-06T11:46:22.028Z,78.10
2023-05-06T11:48:50.542Z,78.30
2023-05-06T11:51:24.289Z,78.20
2023-05-06T11:53:53.048Z,78.60
2023-05-06T11:56:20.826Z,78.80
2023-05-06T11:58:48.465Z,79.20
2023-05-06T12:01:16.009Z,79.50
2023-05-06T12:03:43.711Z,79.80
2023-05-06T12:06:12.860Z,80.00
2023-05-06T12:08:40.806Z,80.20
2023-05-06T12:11:09.246Z,79.20
2023-05-06T12:13:37.848Z,79.00
2023-05-06T12:16:07.797Z,79.00
2023-05-06T12:18:36.313Z,78.80
2023-05-06T12:21:04.267Z,78.90
2023-05-06T12:23:32.288Z,78.90
2023-05-06T12:26:05.030Z,77.20
2023-05-06T12:28:35.182Z,77.30
2023-05-06T12:31:22.641Z,77.70
2023-05-06T12:33:50.727Z,77.70
2023-05-06T12:36:19.588Z,76.70
2023-05-06T12:38:58.114Z,76.20
2023-05-06T12:41:37.209Z,75.40
2023-05-06T12:44:38.000Z,76.00
2023-05-06T12:47:07.805Z,76.20
2023-05-06T12:49:55.253Z,76.60
2023-05-06T12:52:24.867Z,77.00
2023-05-06T12:54:53.001Z,77.30
2023-05-06T12:57:21.168Z,77.80
2023-05-06T12:59:49.793Z,77.70
2023-05-06T13:02:17.686Z,77.90
2023-05-06T13:04:46.869Z,77.30
2023-05-06T13:07:14.587Z,77.30
2023-05-06T13:09:42.309Z,77.70
2023-05-06T13:12:09.923Z,78.20
2023-05-06T13:14:40.032Z,78.80
2023-05-06T13:17:08.864Z,79.00
2023-05-06T13:19:36.650Z,79.20
2023-05-06T13:22:04.285Z,79.30
2023-05-06T13:24:32.387Z,79.20
2023-05-06T13:27:01.211Z,78.80
2023-05-06T13:29:29.734Z,78.80
2023-05-06T13:31:57.870Z,79.20
2023-05-06T13:34:26.078Z,79.50
2023-05-06T13:36:57.277Z,79.80
2023-05-06T13:39:25.316Z,80.00
2023-05-06T13:41:53.204Z,80.00
2023-05-06T13:44:21.492Z,80.10
2023-05-06T13:46:49.853Z,80.20
2023-05-06T13:49:18.540Z,80.10
2023-05-06T13:51:46.208Z,80.20
2023-05-06T13:54:13.823Z,79.80
2023-05-06T13:56:41.489Z,80.10
2023-05-06T13:59:11.313Z,79.70
2023-05-06T14:01:39.296Z,79.50
2023-05-06T14:04:06.955Z,79.40
2023-05-06T14:06:34.500Z,79.30
2023-05-06T14:09:02.100Z,79.10
2023-05-06T14:11:29.681Z,78.70
2023-05-06T14:13:57.515Z,78.70
2023-05-06T14:16:25.168Z,78.50
2023-05-06T14:18:53.567Z,78.80
2023-05-06T14:21:21.802Z,78.90
2023-05-06T14:23:49.418Z,79.00
2023-05-06T14:26:17.032Z,79.10
2023-05-06T14:28:44.592Z,79.10
2023-05-06T14:31:12.190Z,79.10
2023-05-06T14:33:39.853Z,79.20
2023-05-06T14:36:07.703Z,79.40
2023-05-06T14:38:35.711Z,79.40
2023-05-06T14:41:03.384Z,79.50
2023-05-06T14:43:31.231Z,79.10
2023-05-06T14:45:58.846Z,79.40
2023-05-06T14:48:26.473Z,79.60
2023-05-06T14:50:54.066Z,79.60
2023-05-06T14:53:21.733Z,79.30
2023-05-06T14:55:49.322Z,79.20
2023-05-06T14:58:17.767Z,79.10
2023-05-06T15:00:45.392Z,79.30
2023-05-06T15:03:13.199Z,79.70
2023-05-06T15:05:40.916Z,79.80
2023-05-06T15:08:10.007Z,79.90
2023-05-06T15:10:37.618Z,79.70
2023-05-06T15:13:05.282Z,79.60
2023-05-06T15:15:32.897Z,79.20
2023-05-06T15:18:00.546Z,79.40
2023-05-06T15:20:28.185Z,80.00
2023-05-06T15:22:55.729Z,80.60
2023-05-06T15:25:34.413Z,81.20
2023-05-06T15:28:05.196Z,81.70
2023-05-06T15:30:32.805Z,82.20
2023-05-06T15:33:01.795Z,82.60
2023-05-06T15:35:30.975Z,83.20
2023-05-06T15:37:59.202Z,83.70
2023-05-06T15:40:27.007Z,84.60
2023-05-06T15:42:54.799Z,85.10
2023-05-06T15:45:22.835Z,85.40
2023-05-06T15:47:50.638Z,86.00
2023-05-06T15:50:31.773Z,86.40
2023-05-06T15:53:02.116Z,86.60
2023-05-06T15:55:30.243Z,86.60
2023-05-06T15:58:00.596Z,86.60
2023-05-06T16:00:28.667Z,86.80
2023-05-06T16:02:57.249Z,86.80
2023-05-06T16:05:24.973Z,86.90
2023-05-06T16:07:52.482Z,87.00
2023-05-06T16:10:20.182Z,87.10
2023-05-06T16:12:47.792Z,87.30
2023-05-06T16:15:15.533Z,87.50
2023-05-06T16:17:43.268Z,87.50
2023-05-06T16:20:11.274Z,87.50
2023-05-06T16:22:40.109Z,87.60
2023-05-06T16:25:08.100Z,87.70
2023-05-06T16:27:35.700Z,87.90
2023-05-06T16:30:03.658Z,88.00
2023-05-06T16:32:32.223Z,88.00
2023-05-06T16:34:59.973Z,88.00
2023-05-06T16:37:29.103Z,88.10
2023-05-06T16:39:56.743Z,88.20
2023-05-06T16:42:24.353Z,88.50
2023-05-06T16:44:54.868Z,88.60
2023-05-06T16:47:24.351Z,88.80
2023-05-06T16:49:52.521Z,88.90
2023-05-06T16:52:20.367Z,89.00
2023-05-06T16:54:47.961Z,89.10
2023-05-06T16:57:15.590Z,89.10
2023-05-06T16:59:43.427Z,89.20
2023-05-06T17:02:11.213Z,89.20
2023-05-06T17:04:38.835Z,89.30
2023-05-06T17:07:06.575Z,89.30
2023-05-06T17:09:34.114Z,89.30
2023-05-06T17:12:02.410Z,89.40
2023-05-06T17:14:30.431Z,89.40
2023-05-06T17:16:59.775Z,89.30
2023-05-06T17:19:27.469Z,89.30
2023-05-06T17:21:55.416Z,89.40
2023-05-06T17:24:23.147Z,89.40
2023-05-06T17:26:50.722Z,89.60
2023-05-06T17:29:18.292Z,89.70
2023-05-06T17:31:45.881Z,89.70
2023-05-06T17:34:13.450Z,89.70
2023-05-06T17:36:41.089Z,89.70
2023-05-06T17:39:09.688Z,89.70
2023-05-06T17:41:37.530Z,89.70
2023-05-06T17:44:06.681Z,89.70
2023-05-06T17:46:34.356Z,89.70
2023-05-06T17:49:02.000Z,89.70
2023-05-06T17:51:29.532Z,89.80
2023-05-06T17:53:57.772Z,89.80
2023-05-06T17:56:25.930Z,89.80
2023-05-06T17:58:53.510Z,89.70
2023-05-06T18:01:21.199Z,89.70
2023-05-06T18:03:48.952Z,89.70
2023-05-06T18:06:16.757Z,89.80
2023-05-06T18:08:44.946Z,89.80
2023-05-06T18:11:12.589Z,89.80
2023-05-06T18:13:40.263Z,89.90
2023-05-06T18:16:08.084Z,89.90
2023-05-06T18:18:35.799Z,90.00
2023-05-06T18:21:03.555Z,90.10
2023-05-06T18:23:31.227Z,90.10
2023-05-06T18:25:58.812Z,90.10
2023-05-06T18:28:26.515Z,90.10
2023-05-06T18:30:54.186Z,90.20
2023-05-06T18:33:21.965Z,90.20
2023-05-06T18:35:49.679Z,90.20
2023-05-06T18:38:17.221Z,90.20
2023-05-06T18:40:47.951Z,90.20
2023-05-06T18:43:15.574Z,90.30
2023-05-06T18:45:43.340Z,90.20
2023-05-06T18:48:11.375Z,90.20
2023-05-06T18:50:38.941Z,90.20
2023-05-06T18:53:06.572Z,90.20
2023-05-06T18:55:34.240Z,90.20
2023-05-06T18:58:05.641Z,90.20
2023-05-06T19:00:33.404Z,90.10
2023-05-06T19:03:01.175Z,90.20
2023-05-06T19:05:28.860Z,90.20
2023-05-06T19:07:56.412Z,90.20
2023-05-06T19:10:24.052Z,90.20
2023-05-06T19:12:52.474Z,90.10
2023-05-06T19:15:20.226Z,90.20
2023-05-06T19:17:47.812Z,90.20
2023-05-06T19:20:15.495Z,90.20
2023-05-06T19:22:43.250Z,90.20
2023-05-06T19:25:11.317Z,90.20
2023-05-06T19:27:39.027Z,90.20
2023-05-06T19:30:07.431Z,90.20
2023-05-06T19:32:35.055Z,90.20
2023-05-06T19:35:11.801Z,90.20
2023-05-06T19:37:39.767Z,90.20
2023-05-06T19:40:08.140Z,90.30
2023-05-06T19:42:35.974Z,90.20
2023-05-06T19:45:07.932Z,90.30
2023-05-06T19:47:35.713Z,90.30
2023-05-06T19:50:04.344Z,90.40
2023-05-06T19:52:34.394Z,90.40
2023-05-06T19:55:03.217Z,90.30
2023-05-06T19:57:33.668Z,90.30
2023-05-06T20:00:09.892Z,90.40
2023-05-06T20:02:38.596Z,90.40
2023-05-06T20:05:06.772Z,90.40
2023-05-06T20:07:34.585Z,90.40
2023-05-06T20:10:02.186Z,90.40
2023-05-06T20:12:30.569Z,90.40
2023-05-06T20:14:58.221Z,90.40
2023-05-06T20:17:25.933Z,90.40
2023-05-06T20:19:58.640Z,90.40
2023-05-06T20:22:27.163Z,90.50
2023-05-06T20:25:17.489Z,90.50
2023-05-06T20:27:45.908Z,90.50
2023-05-06T20:30:13.638Z,90.50
2023-05-06T20:32:41.420Z,90.50
2023-05-06T20:35:10.000Z,90.50
2023-05-06T20:37:38.176Z,90.50
2023-05-06T20:40:07.944Z,90.50
2023-05-06T20:42:35.711Z,90.50
2023-05-06T20:45:04.183Z,90.50
2023-05-06T20:47:31.944Z,90.50
2023-05-06T20:49:59.552Z,90.50
2023-05-06T20:52:27.461Z,90.50
2023-05-06T20:54:55.107Z,90.50
2023-05-06T20:57:22.957Z,90.50
2023-05-06T20:59:51.840Z,90.50
2023-05-06T21:02:19.428Z,90.50
2023-05-06T21:04:46.973Z,90.60
2023-05-06T21:07:15.154Z,90.60
2023-05-06T21:09:42.832Z,90.50
2023-05-06T21:12:10.376Z,90.60
2023-05-06T21:14:37.951Z,90.60
2023-05-06T21:17:05.705Z,90.60
2023-05-06T21:19:33.286Z,90.60
2023-05-06T21:22:00.944Z,90.60
2023-05-06T21:24:28.496Z,90.60
2023-05-06T21:26:56.218Z,90.60
2023-05-06T21:29:23.852Z,90.70
2023-05-06T21:31:51.468Z,90.80
2023-05-06T21:34:19.150Z,90.80
2023-05-06T21:36:46.763Z,90.80
2023-05-06T21:39:14.556Z,90.80
2023-05-06T21:41:42.191Z,90.80
2023-05-06T21:44:10.326Z,90.80
2023-05-06T21:46:38.169Z,90.90
2023-05-06T21:49:06.056Z,90.90
2023-05-06T21:51:36.952Z,91.00
2023-05-06T21:54:04.671Z,91.00
2023-05-06T21:56:32.255Z,91.10
2023-05-06T21:58:59.833Z,91.10
2023-05-06T22:01:27.386Z,91.10
2023-05-06T22:03:55.516Z,91.10
2023-05-06T22:06:23.498Z,91.10
2023-05-06T22:08:51.451Z,91.10
2023-05-06T22:11:19.101Z,91.20
2023-05-06T22:13:46.867Z,91.20
2023-05-06T22:16:14.675Z,91.20
2023-05-06T22:18:42.681Z,91.30
2023-05-06T22:21:10.224Z,91.30
2023-05-06T22:23:40.718Z,91.40
2023-05-06T22:26:08.301Z,91.50
2023-05-06T22:28:35.918Z,91.50
2023-05-06T22:31:03.699Z,91.50
2023-05-06T22:33:31.428Z,91.60
2023-05-06T22:35:59.128Z,91.60
2023-05-06T22:38:26.716Z,91.60
2023-05-06T22:40:54.273Z,91.70
2023-05-06T22:43:21.868Z,91.70
2023-05-06T22:45:49.550Z,91.80
2023-05-06T22:48:17.298Z,91.80
2023-05-06T22:50:44.892Z,91.90
2023-05-06T22:53:15.552Z,91.90
2023-05-06T22:55:43.496Z,91.90
2023-05-06T22:58:11.273Z,91.90
2023-05-06T23:00:39.072Z,91.90
2023-05-06T23:03:06.779Z,92.00
2023-05-06T23:05:34.515Z,92.00
2023-05-06T23:08:02.186Z,92.00
2023-05-06T23:10:29.784Z,92.00
2023-05-06T23:13:01.483Z,92.00
2023-05-06T23:15:29.224Z,92.00
2023-05-06T23:17:56.967Z,92.00
2023-05-06T23:20:24.685Z,92.10
2023-05-06T23:22:52.307Z,92.10
2023-05-06T23:25:20.323Z,92.10
2023-05-06T23:27:47.966Z,92.10
2023-05-06T23:30:15.697Z,92.10
2023-05-06T23:32:43.332Z,92.20
2023-05-06T23:35:11.427Z,92.20
2023-05-06T23:37:39.436Z,92.20
2023-05-06T23:40:07.873Z,92.20
2023-05-06T23:42:35.520Z,92.20
2023-05-06T23:45:03.203Z,92.20
2023-05-06T23:47:30.901Z,92.20
2023-05-06T23:49:58.953Z,92.20
2023-05-06T23:52:26.903Z,92.20
2023-05-06T23:54:54.486Z,92.20
2023-05-06T23:57:22.097Z,92.10
2023-05-06T23:59:49.695Z,92.10
